x

Matinicus Rock, Me (mism1) Weather Station

4:00 - Sun 26th Feb 2017 All times are EST. -5 hours from GMT.

  • Wind
    31mph, 33mph gusts
  • Ar Temp 38°f
  • Sea Pressure 1008.2mb
  • Matinicus Rock, Me
  • Matinicus Rock, Me

More Historic Weather Station data

Upgrade to MSW Pro to gain access to the past 30 days of data for over 8000 Wavebouys and Weather Stations around the globe.

Join Pro

Comparision Forecast

View Surf forecast
   
Dom 02/26 4:00 31 33 mph 1008.2mb 38f
3:00 26 30 mph 1007.1mb 39f
2:00 22 24 mph 1006.2mb 38f
1:00 33 34 mph 1004.9mb 38f
12:00 31 33 mph 1004.3mb 38f
11:00 23 25 mph 1004mb 38f
10:00 28 30 mph 1003.4mb 38f
9:00 24 26 mph 1002.5mb 38f
8:00 20 21 mph 1001.4mb 39f
7:00 28 32 mph 999.9mb 39f
6:00 24 26 mph 998.5mb 40f
5:00 22 24 mph 997.3mb 41f
4:00 28 30 mph 995.1mb 42f
3:00 22 23 mph 993.9mb 43f
2:00 21 23 mph 993.9mb 44f
1:00 20 22 mph 994.1mb 46f
12:00 29 30 mph 994.2mb 46f
Sáb 02/25 11:00 29 31 mph 995.2mb 45f
10:00 26 29 mph 996.9mb 45f
9:00 20 21 mph 999mb 45f
8:00 22 23 mph 1000mb 45f
7:00 25 28 mph 1000.6mb 45f
6:00 26 29 mph 1002.2mb 46f
5:00 26 29 mph 1003.7mb 46f
4:00 23 24 mph 1005.1mb 47f
3:00 24 25 mph 1006.3mb 47f
2:00 23 24 mph 1006.8mb 48f
1:00 23 24 mph 1007.5mb 49f
12:00 17 18 mph 1008.7mb 48f
11:00 24 25 mph 1009.5mb 47f
10:00 28 30 mph 1010.4mb 47f
9:00 28 29 mph 1010.5mb 46f
8:00 29 31 mph 1010.7mb 46f
7:00 22 23 mph 1011mb 44f
6:00 23 24 mph 1010.8mb 46f
5:00 28 29 mph 1011.1mb 45f
4:00 22 24 mph 1011.4mb 44f
3:00 18 20 mph 1011.2mb 44f
2:00 22 23 mph 1011.1mb 46f
1:00 21 22 mph 1011.2mb 45f
12:00 23 24 mph 1010.9mb 45f
Sex 02/24 11:00 21 22 mph 1010.6mb 45f
10:00 26 28 mph 1010.5mb 46f
9:00 30 33 mph 1010.5mb 47f
8:00 31 33 mph 1010.9mb 47f
7:00 29 31 mph 1010.8mb 47f
6:00 20 22 mph 1011mb 46f
5:00 21 22 mph 1011mb 45f
4:00 17
mph
1011mb 45f
3:00 14
mph
1011.5mb 45f
2:00 13
mph
1012mb 45f
1:00 13 14 mph 1012.4mb 44f
12:00 3 5 mph 1013mb 44f
11:00 7 8 mph 1013.6mb 44f
10:00 11 13 mph 1013.8mb 44f
9:00 11 13 mph 1013.5mb 44f
8:00 8
mph
1013.1mb 46f
7:00 7 8 mph 1012.9mb 46f
6:00 11
mph
1012.2mb 44f
5:00 13 14 mph 1011.7mb 44f
4:00 14 15 mph 1010.7mb 44f
3:00 17
mph
1010mb 44f
2:00 20 21 mph 1009.5mb 45f
1:00 21 22 mph 1008.8mb 45f
12:00 24 26 mph 1008.5mb 46f
Qui 02/23 11:00 30 32 mph 1007.7mb 46f
10:00 30 32 mph 1007.3mb 46f
9:00 29 31 mph 1007.1mb 46f
8:00 30 32 mph 1006.9mb 45f
7:00 30 33 mph 1006.5mb 45f
6:00 18 21 mph 1006.8mb 44f
5:00 26 29 mph 1005.5mb 45f
4:00 22 24 mph 1005.9mb 44f
3:00 17 18 mph 1006.9mb 44f
2:00 14 15 mph 1007.6mb 42f
1:00 15 16 mph 1008.3mb 40f
12:00 20 23 mph 1009.1mb 40f
11:00 23 25 mph 1009.8mb 40f
10:00 22 23 mph 1010.4mb 40f
9:00 17 20 mph 1011mb 42f
8:00 16 17 mph 1010.8mb 41f
7:00 15 16 mph 1011.1mb 40f
6:00 14 15 mph 1010.7mb 40f
5:00 11
mph
1011mb 40f